Bw Columbia — 9V2880 — position and weather

sailwx.info

Track history (hours):
 
Tides and Currents Weather Stations Pressure Air Temp Water Temp Dewpoint Dewpoint Depression Visibility Wind Speed Wind Dir Waves Ship Positions

Bw Columbia

Last reported at 2018-May-30 15:23 UTC. Time now 2018-Jun-25 08:21 UTC.
Position N 01°23' E 103°14'.
Warning: this ship's position is 25 days out of date.

Length 228 m; draft 8.5 m.

Type: Tanker. MMSI: 564977000.

Date/timePositionNaut miles runAvg speedWind from/ knotsBaromVisibWave heightAir tempDewpointWater temp
2018-May-30 15:23N 01°23' E 103°14'4 9.9
2018-May-30 15:00N 01°20' E 103°17'611.4
2018-May-30 14:30N 01°17' E 103°22'612.3
2018-May-30 14:00N 01°14' E 103°27'612.8
2018-May-30 13:30N 01°12' E 103°33'612.8
2018-May-30 13:00N 01°11' E 103°39'611.7
2018-May-30 12:30N 01°09' E 103°45'713.0
2018-May-30 12:00N 01°12' E 103°51'612.8
2018-May-30 11:30N 01°14' E 103°56'611.2
2018-May-30 11:00N 01°16' E 104°02'713.4
2018-May-30 10:30N 01°17' E 104°09'611.8
2018-May-30 09:58N 01°18' E 104°15'612.7
2018-May-30 09:29N 01°19' E 104°20'812.4
2018-May-30 08:50N 01°25' E 104°27'  
Track history (hours):
 
Tides and Currents Weather Stations Pressure Air Temp Water Temp Dewpoint Dewpoint Depression Visibility Wind Speed Wind Dir Waves Ship Positions

Bw Columbia

Last reported at 2018-May-30 15:23 UTC. Time now 2018-Jun-25 08:21 UTC.
Position N 01°23' E 103°14'.
Warning: this ship's position is 25 days out of date.

Length 228 m; draft 8.5 m.

Type: Tanker. MMSI: 564977000.

Date/timePositionNaut miles runAvg speedWind from/ knotsBaromVisibWave heightAir tempDewpointWater temp
2018-May-30 15:23N 01°23' E 103°14'4 9.9
2018-May-30 15:00N 01°20' E 103°17'611.4
2018-May-30 14:30N 01°17' E 103°22'612.3
2018-May-30 14:00N 01°14' E 103°27'612.8
2018-May-30 13:30N 01°12' E 103°33'612.8
2018-May-30 13:00N 01°11' E 103°39'611.7
2018-May-30 12:30N 01°09' E 103°45'713.0
2018-May-30 12:00N 01°12' E 103°51'612.8
2018-May-30 11:30N 01°14' E 103°56'611.2
2018-May-30 11:00N 01°16' E 104°02'713.4
2018-May-30 10:30N 01°17' E 104°09'611.8
2018-May-30 09:58N 01°18' E 104°15'612.7
2018-May-30 09:29N 01°19' E 104°20'812.4
2018-May-30 08:50N 01°25' E 104°27'  

Dump ship's entire track history